createdAt,value
2019-02-20T00:01:29.305Z,99.90
2019-02-20T00:03:58.955Z,99.90
2019-02-20T00:06:28.629Z,99.90
2019-02-20T00:08:59.132Z,99.90
2019-02-20T00:11:28.755Z,99.90
2019-02-20T00:13:58.404Z,99.90
2019-02-20T00:16:28.025Z,99.90
2019-02-20T00:18:57.672Z,99.90
2019-02-20T00:21:27.294Z,99.90
2019-02-20T00:23:56.945Z,99.90
2019-02-20T00:26:26.571Z,99.90
2019-02-20T00:28:56.217Z,99.90
2019-02-20T00:31:25.837Z,99.90
2019-02-20T00:33:55.480Z,99.90
2019-02-20T00:36:25.100Z,99.90
2019-02-20T00:38:54.775Z,99.90
2019-02-20T00:41:24.368Z,99.90
2019-02-20T00:43:55.669Z,99.90
2019-02-20T00:46:29.885Z,99.90
2019-02-20T00:49:01.183Z,99.90
2019-02-20T00:51:35.190Z,99.90
2019-02-20T00:54:06.778Z,99.90
2019-02-20T00:56:36.396Z,99.90
2019-02-20T00:59:06.075Z,99.90
2019-02-20T01:01:35.684Z,99.90
2019-02-20T01:04:05.603Z,99.90
2019-02-20T01:06:35.231Z,99.90
2019-02-20T01:09:06.551Z,99.90
2019-02-20T01:11:36.144Z,99.90
2019-02-20T01:14:05.858Z,99.90
2019-02-20T01:16:35.492Z,99.90
2019-02-20T01:19:05.137Z,99.90
2019-02-20T01:21:34.751Z,99.90
2019-02-20T01:24:04.482Z,99.90
2019-02-20T01:26:34.134Z,99.90
2019-02-20T01:29:03.772Z,99.90
2019-02-20T01:31:33.506Z,99.90
2019-02-20T01:34:03.419Z,99.90
2019-02-20T01:36:33.069Z,99.90
2019-02-20T01:39:02.775Z,99.90
2019-02-20T01:41:32.430Z,99.90
2019-02-20T01:44:02.065Z,99.90
2019-02-20T01:46:31.738Z,99.90
2019-02-20T01:49:01.355Z,99.90
2019-02-20T01:51:31.040Z,99.90
2019-02-20T01:54:00.672Z,99.90
2019-02-20T01:56:30.319Z,99.90
2019-02-20T01:58:59.979Z,99.90
2019-02-20T02:01:29.806Z,99.90
2019-02-20T02:03:59.437Z,99.90
2019-02-20T02:06:29.083Z,99.90
2019-02-20T02:08:59.719Z,99.90
2019-02-20T02:11:29.533Z,99.90
2019-02-20T02:13:59.174Z,99.90
2019-02-20T02:16:28.831Z,99.90
2019-02-20T02:18:58.463Z,99.90
2019-02-20T02:21:28.122Z,99.90
2019-02-20T02:23:57.749Z,99.90
2019-02-20T02:26:27.486Z,99.90
2019-02-20T02:28:57.283Z,99.90
2019-02-20T02:31:26.928Z,99.90
2019-02-20T02:33:56.561Z,99.90
2019-02-20T02:36:26.216Z,99.90
2019-02-20T02:38:55.849Z,99.90
2019-02-20T02:41:26.300Z,99.90
2019-02-20T02:43:55.942Z,99.90
2019-02-20T02:46:25.593Z,99.90
2019-02-20T02:48:55.229Z,99.90
2019-02-20T02:51:25.125Z,99.90
2019-02-20T02:53:54.759Z,99.90
2019-02-20T02:56:24.410Z,99.90
2019-02-20T02:58:54.045Z,99.90
2019-02-20T03:01:23.753Z,99.90
2019-02-20T03:03:53.383Z,99.90
2019-02-20T03:06:23.043Z,99.90
2019-02-20T03:08:52.673Z,99.90
2019-02-20T03:11:22.394Z,99.90
2019-02-20T03:13:52.030Z,99.90
2019-02-20T03:16:21.683Z,99.90
2019-02-20T03:18:51.311Z,99.90
2019-02-20T03:21:34.855Z,99.90
2019-02-20T03:24:04.481Z,99.90
2019-02-20T03:26:34.138Z,99.90
2019-02-20T03:29:03.840Z,99.90
2019-02-20T03:31:35.008Z,99.90
2019-02-20T03:34:04.646Z,99.90
2019-02-20T03:36:34.374Z,99.90
2019-02-20T03:39:05.080Z,99.90
2019-02-20T03:41:36.199Z,99.90
2019-02-20T03:44:05.807Z,99.90
2019-02-20T03:46:35.462Z,99.90
2019-02-20T03:49:05.094Z,99.90
2019-02-20T03:51:34.960Z,99.90
2019-02-20T03:54:04.668Z,99.90
2019-02-20T03:56:34.403Z,99.90
2019-02-20T03:59:04.102Z,99.90
2019-02-20T04:01:35.185Z,99.90
2019-02-20T04:04:04.815Z,99.90
2019-02-20T04:06:34.466Z,99.90
2019-02-20T04:09:05.342Z,99.90
2019-02-20T04:11:35.074Z,99.90
2019-02-20T04:14:04.779Z,99.90
2019-02-20T04:16:34.497Z,99.90
2019-02-20T04:19:04.142Z,99.90
2019-02-20T04:21:34.154Z,99.90
2019-02-20T04:24:03.791Z,99.90
2019-02-20T04:26:35.097Z,99.90
2019-02-20T04:29:04.724Z,99.90
2019-02-20T04:31:34.406Z,99.90
2019-02-20T04:34:04.025Z,99.90
2019-02-20T04:36:33.762Z,99.90
2019-02-20T04:39:04.647Z,99.90
2019-02-20T04:41:34.289Z,99.90
2019-02-20T04:44:03.984Z,99.90
2019-02-20T04:46:33.642Z,99.90
2019-02-20T04:49:03.278Z,99.90
2019-02-20T04:51:32.928Z,99.90
2019-02-20T04:54:10.841Z,99.90
2019-02-20T04:56:33.901Z,99.90
2019-02-20T04:59:03.532Z,99.90
2019-02-20T05:01:33.185Z,99.90
2019-02-20T05:04:02.807Z,99.90
2019-02-20T05:06:32.826Z,99.90
2019-02-20T05:09:02.676Z,99.90
2019-02-20T05:11:32.526Z,99.90
2019-02-20T05:14:02.158Z,99.90
2019-02-20T05:16:31.802Z,99.90
2019-02-20T05:19:01.464Z,99.90
2019-02-20T05:21:31.094Z,99.90
2019-02-20T05:24:00.747Z,99.90
2019-02-20T05:26:30.376Z,99.90
2019-02-20T05:29:00.055Z,99.90
2019-02-20T05:31:29.731Z,99.90
2019-02-20T05:33:59.383Z,99.90
2019-02-20T05:36:29.011Z,99.90
2019-02-20T05:38:58.664Z,99.90
2019-02-20T05:41:28.298Z,99.90
2019-02-20T05:43:57.941Z,99.90
2019-02-20T05:46:27.576Z,99.90
2019-02-20T05:48:57.225Z,99.90
2019-02-20T05:51:26.853Z,99.90
2019-02-20T05:53:56.505Z,99.90
2019-02-20T05:56:26.139Z,99.90
2019-02-20T05:58:55.791Z,99.90
2019-02-20T06:01:25.458Z,99.90
2019-02-20T06:03:55.122Z,99.90
2019-02-20T06:06:24.741Z,99.90
2019-02-20T06:08:54.402Z,99.90
2019-02-20T06:11:24.035Z,99.90
2019-02-20T06:13:53.682Z,99.90
2019-02-20T06:16:23.309Z,99.90
2019-02-20T06:18:52.958Z,99.90
2019-02-20T06:21:22.734Z,99.90
2019-02-20T06:23:52.394Z,99.90
2019-02-20T06:26:22.034Z,99.90
2019-02-20T06:28:51.678Z,99.90
2019-02-20T06:31:21.305Z,99.90
2019-02-20T06:33:50.960Z,99.90
2019-02-20T06:36:20.590Z,99.90
2019-02-20T06:38:50.245Z,99.90
2019-02-20T06:41:19.885Z,99.90
2019-02-20T06:43:49.533Z,99.90
2019-02-20T06:46:19.170Z,99.90
2019-02-20T06:48:48.886Z,99.90
2019-02-20T06:51:19.844Z,99.90
2019-02-20T06:53:49.571Z,99.90
2019-02-20T06:56:19.191Z,99.90
2019-02-20T06:58:48.843Z,99.90
2019-02-20T07:01:18.474Z,99.90
2019-02-20T07:03:48.129Z,99.90
2019-02-20T07:06:32.851Z,99.90
2019-02-20T07:09:22.170Z,99.90
2019-02-20T07:12:19.025Z,99.90
2019-02-20T07:15:14.418Z,99.90
2019-02-20T07:17:55.698Z,99.90
2019-02-20T07:20:44.878Z,99.90
2019-02-20T07:23:20.579Z,99.90
2019-02-20T07:26:02.018Z,99.90
2019-02-20T07:28:52.115Z,99.90
2019-02-20T07:31:21.752Z,99.90
2019-02-20T07:33:51.423Z,99.90
2019-02-20T07:36:21.066Z,99.90
2019-02-20T07:38:50.722Z,99.90
2019-02-20T07:41:20.369Z,99.90
2019-02-20T07:43:49.997Z,99.90
2019-02-20T07:46:19.664Z,99.90
2019-02-20T07:48:49.303Z,99.90
2019-02-20T07:51:18.958Z,99.90
2019-02-20T07:53:48.586Z,99.90
2019-02-20T07:56:18.230Z,99.90
2019-02-20T07:58:47.862Z,99.90
2019-02-20T08:01:17.510Z,99.90
2019-02-20T08:03:47.146Z,99.90
2019-02-20T08:06:16.803Z,99.90
2019-02-20T08:08:46.432Z,99.90
2019-02-20T08:11:16.081Z,99.90
2019-02-20T08:13:45.736Z,99.90
2019-02-20T08:16:15.403Z,99.90
2019-02-20T08:18:45.022Z,99.90
2019-02-20T08:21:14.670Z,99.90
2019-02-20T08:23:44.306Z,99.90
2019-02-20T08:26:13.966Z,99.90
2019-02-20T08:28:43.607Z,99.90
2019-02-20T08:31:13.259Z,99.90
2019-02-20T08:33:43.118Z,99.90
2019-02-20T08:36:12.786Z,99.90
2019-02-20T08:38:42.392Z,99.90
2019-02-20T08:41:12.050Z,99.90
2019-02-20T08:43:41.682Z,99.90
2019-02-20T08:46:11.335Z,99.90
2019-02-20T08:48:40.968Z,99.90
2019-02-20T08:51:10.613Z,99.90
2019-02-20T08:53:40.249Z,99.90
2019-02-20T08:56:09.900Z,99.90
2019-02-20T08:58:39.534Z,99.90
2019-02-20T09:01:09.182Z,99.90
2019-02-20T09:03:38.818Z,99.90
2019-02-20T09:06:08.471Z,99.90
2019-02-20T09:08:38.094Z,99.90
2019-02-20T09:11:07.751Z,99.90
2019-02-20T09:13:37.394Z,99.90
2019-02-20T09:16:07.048Z,99.90
2019-02-20T09:18:36.682Z,99.90
2019-02-20T09:21:06.345Z,99.90
2019-02-20T09:23:35.980Z,99.90
2019-02-20T09:26:05.710Z,99.90
2019-02-20T09:28:37.158Z,99.90
2019-02-20T09:31:06.631Z,99.90
2019-02-20T09:33:37.430Z,99.90
2019-02-20T09:36:07.094Z,99.90
2019-02-20T09:38:36.730Z,99.90
2019-02-20T09:41:06.402Z,99.00
2019-02-20T09:43:36.034Z,98.80
2019-02-20T09:46:05.697Z,97.20
2019-02-20T09:48:35.334Z,95.50
2019-02-20T09:51:05.043Z,92.30
2019-02-20T09:53:34.810Z,75.00
2019-02-20T09:56:04.454Z,66.00
2019-02-20T09:58:34.110Z,58.60
2019-02-20T10:01:03.756Z,58.30
2019-02-20T10:03:33.428Z,57.20
2019-02-20T10:06:03.055Z,54.50
2019-02-20T10:08:32.714Z,55.80
2019-02-20T10:11:02.362Z,54.50
2019-02-20T10:13:32.287Z,53.30
2019-02-20T10:16:01.916Z,55.60
2019-02-20T10:18:31.585Z,58.80
2019-02-20T10:21:01.245Z,63.00
2019-02-20T10:23:30.870Z,64.50
2019-02-20T10:26:01.269Z,65.70
2019-02-20T10:28:30.974Z,69.40
2019-02-20T10:31:00.611Z,76.00
2019-02-20T10:33:30.268Z,71.70
2019-02-20T10:35:59.907Z,68.30
2019-02-20T10:38:29.582Z,64.80
2019-02-20T10:40:59.220Z,63.20
2019-02-20T10:43:28.877Z,61.10
2019-02-20T10:45:58.509Z,63.80
2019-02-20T10:48:28.171Z,63.00
2019-02-20T10:50:57.838Z,64.40
2019-02-20T10:53:27.555Z,59.40
2019-02-20T10:55:57.192Z,58.10
2019-02-20T10:58:26.853Z,55.60
2019-02-20T11:00:56.498Z,55.90
2019-02-20T11:03:26.166Z,57.50
2019-02-20T11:05:55.806Z,56.90
2019-02-20T11:08:25.543Z,53.60
2019-02-20T11:10:55.186Z,53.30
2019-02-20T11:13:24.866Z,52.80
2019-02-20T11:15:54.489Z,53.50
2019-02-20T11:18:24.150Z,54.00
2019-02-20T11:20:53.837Z,50.00
2019-02-20T11:23:23.527Z,48.10
2019-02-20T11:25:53.157Z,46.60
2019-02-20T11:28:26.952Z,47.00
2019-02-20T11:30:54.104Z,47.00
2019-02-20T11:33:23.798Z,46.60
2019-02-20T11:35:53.434Z,46.50
2019-02-20T11:38:23.103Z,45.80
2019-02-20T11:40:52.743Z,44.90
2019-02-20T11:43:22.406Z,44.30
2019-02-20T11:45:52.066Z,43.40
2019-02-20T11:48:21.721Z,43.30
2019-02-20T11:50:51.355Z,44.50
2019-02-20T11:53:21.201Z,45.00
2019-02-20T11:55:50.833Z,46.40
2019-02-20T11:58:20.495Z,46.00
2019-02-20T12:00:50.127Z,45.00
2019-02-20T12:03:19.873Z,44.10
2019-02-20T12:05:49.511Z,43.80
2019-02-20T12:08:19.241Z,44.60
2019-02-20T12:10:48.915Z,44.50
2019-02-20T12:13:18.598Z,43.80
2019-02-20T12:15:48.256Z,44.40
2019-02-20T12:18:18.529Z,44.10
2019-02-20T12:20:48.206Z,45.80
2019-02-20T12:23:17.845Z,45.60
2019-02-20T12:25:47.590Z,45.60
2019-02-20T12:28:17.250Z,45.10
2019-02-20T12:30:46.910Z,44.30
2019-02-20T12:33:16.744Z,42.40
2019-02-20T12:35:46.485Z,41.20
2019-02-20T12:38:16.130Z,41.50
2019-02-20T12:40:45.781Z,39.60
2019-02-20T12:43:15.430Z,39.10
2019-02-20T12:45:45.094Z,40.20
2019-02-20T12:48:14.727Z,41.50
2019-02-20T12:50:44.377Z,40.90
2019-02-20T12:53:14.061Z,39.70
2019-02-20T12:55:43.784Z,40.10
2019-02-20T12:58:13.433Z,41.60
2019-02-20T13:00:43.748Z,42.20
2019-02-20T13:03:13.570Z,44.70
2019-02-20T13:05:43.235Z,45.30
2019-02-20T13:08:12.865Z,44.00
2019-02-20T13:10:42.596Z,44.00
2019-02-20T13:13:12.308Z,43.30
2019-02-20T13:15:41.974Z,44.50
2019-02-20T13:18:11.687Z,42.20
2019-02-20T13:20:41.364Z,41.00
2019-02-20T13:23:11.039Z,41.20
2019-02-20T13:25:40.706Z,40.00
2019-02-20T13:28:10.329Z,40.80
2019-02-20T13:30:39.987Z,41.40
2019-02-20T13:33:09.618Z,40.70
2019-02-20T13:35:39.330Z,41.20
2019-02-20T13:38:08.918Z,41.30
2019-02-20T13:40:38.579Z,41.10
2019-02-20T13:43:08.213Z,42.10
2019-02-20T13:45:37.877Z,43.30
2019-02-20T13:48:07.899Z,42.90
2019-02-20T13:50:37.660Z,44.50
2019-02-20T13:53:07.453Z,48.70
2019-02-20T13:55:37.173Z,52.60
2019-02-20T13:58:06.877Z,54.60
2019-02-20T14:00:36.532Z,55.70
2019-02-20T14:03:06.565Z,57.50
2019-02-20T14:05:36.243Z,57.00
2019-02-20T14:08:05.878Z,56.80
2019-02-20T14:10:35.541Z,58.20
2019-02-20T14:13:05.242Z,58.50
2019-02-20T14:15:34.978Z,58.70
2019-02-20T14:18:05.249Z,58.80
2019-02-20T14:20:34.982Z,60.40
2019-02-20T14:23:04.744Z,63.10
2019-02-20T14:25:36.312Z,63.90
2019-02-20T14:28:05.657Z,64.60
2019-02-20T14:30:35.398Z,65.20
2019-02-20T14:33:06.073Z,66.30
2019-02-20T14:35:35.745Z,66.40
2019-02-20T14:38:05.463Z,66.80
2019-02-20T14:40:35.117Z,69.40
2019-02-20T14:43:04.761Z,71.00
2019-02-20T14:45:34.432Z,72.20
2019-02-20T14:48:04.362Z,71.40
2019-02-20T14:50:34.026Z,73.50
2019-02-20T14:53:03.681Z,74.00
2019-02-20T14:55:33.357Z,75.40
2019-02-20T14:58:02.989Z,74.30
2019-02-20T15:00:32.726Z,75.70
2019-02-20T15:03:02.673Z,80.00
2019-02-20T15:05:32.335Z,78.30
2019-02-20T15:08:02.257Z,77.90
2019-02-20T15:10:31.931Z,79.50
2019-02-20T15:13:01.741Z,80.20
2019-02-20T15:15:31.402Z,79.90
2019-02-20T15:18:02.541Z,82.70
2019-02-20T15:20:32.306Z,81.40
2019-02-20T15:23:02.049Z,81.90
2019-02-20T15:25:31.702Z,82.70
2019-02-20T15:28:01.342Z,84.90
2019-02-20T15:30:30.996Z,89.20
2019-02-20T15:33:00.865Z,85.10
2019-02-20T15:35:30.655Z,84.90
2019-02-20T15:38:00.293Z,85.60
2019-02-20T15:40:29.949Z,86.80
2019-02-20T15:43:01.518Z,88.10
2019-02-20T15:45:30.997Z,88.30
2019-02-20T15:48:00.902Z,90.00
2019-02-20T15:50:30.533Z,90.00
2019-02-20T15:53:00.243Z,89.90
2019-02-20T15:55:29.945Z,90.30
2019-02-20T15:57:59.604Z,91.70
2019-02-20T16:00:29.237Z,90.70
2019-02-20T16:02:59.098Z,90.50
2019-02-20T16:05:28.806Z,90.90
2019-02-20T16:07:58.489Z,90.90
2019-02-20T16:10:28.127Z,91.30
2019-02-20T16:12:57.811Z,91.20
2019-02-20T16:15:27.455Z,91.70
2019-02-20T16:17:57.609Z,92.20
2019-02-20T16:20:27.249Z,93.00
2019-02-20T16:22:56.914Z,95.60
2019-02-20T16:25:26.545Z,99.00
2019-02-20T16:27:56.205Z,99.90
2019-02-20T16:30:25.837Z,99.90
2019-02-20T16:32:55.867Z,99.90
2019-02-20T16:35:25.504Z,99.90
2019-02-20T16:37:55.161Z,99.90
2019-02-20T16:40:24.866Z,99.90
2019-02-20T16:42:54.535Z,99.90
2019-02-20T16:45:25.301Z,99.90
2019-02-20T16:47:55.533Z,99.90
2019-02-20T16:50:25.173Z,99.90
2019-02-20T16:52:54.888Z,99.90
2019-02-20T16:55:24.562Z,99.90
2019-02-20T16:57:56.676Z,99.90
2019-02-20T17:00:25.548Z,99.90
2019-02-20T17:02:55.513Z,99.90
2019-02-20T17:05:25.289Z,99.90
2019-02-20T17:07:55.181Z,99.90
2019-02-20T17:10:24.815Z,99.90
2019-02-20T17:12:54.549Z,99.90
2019-02-20T17:15:24.181Z,99.90
2019-02-20T17:17:54.139Z,99.90
2019-02-20T17:20:23.969Z,99.90
2019-02-20T17:22:53.928Z,99.90
2019-02-20T17:25:23.560Z,99.90
2019-02-20T17:27:53.212Z,99.90
2019-02-20T17:30:22.916Z,99.90
2019-02-20T17:32:52.570Z,99.90
2019-02-20T17:35:22.197Z,99.90
2019-02-20T17:37:51.846Z,99.90
2019-02-20T17:40:21.795Z,99.90
2019-02-20T17:42:51.466Z,99.90
2019-02-20T17:45:21.149Z,99.90
2019-02-20T17:47:50.746Z,99.90
2019-02-20T17:50:22.815Z,99.90
2019-02-20T17:52:52.770Z,99.90
2019-02-20T17:55:22.469Z,99.90
2019-02-20T17:57:52.114Z,99.90
2019-02-20T18:00:23.897Z,99.90
2019-02-20T18:02:53.626Z,99.90
2019-02-20T18:05:23.987Z,99.90
2019-02-20T18:07:53.950Z,99.90
2019-02-20T18:10:23.580Z,99.90
2019-02-20T18:12:53.260Z,99.90
2019-02-20T18:15:22.894Z,99.90
2019-02-20T18:17:52.545Z,99.90
2019-02-20T18:20:22.181Z,99.90
2019-02-20T18:22:51.886Z,99.90
2019-02-20T18:25:21.591Z,99.90
2019-02-20T18:27:51.245Z,99.90
2019-02-20T18:30:20.902Z,99.90
2019-02-20T18:32:50.606Z,99.90
2019-02-20T18:35:20.189Z,99.90
2019-02-20T18:37:49.834Z,99.90
2019-02-20T18:40:19.537Z,99.90
2019-02-20T18:42:49.333Z,99.90
2019-02-20T18:45:19.025Z,99.90
2019-02-20T18:47:48.698Z,99.90
2019-02-20T18:50:18.408Z,99.90
2019-02-20T18:52:51.390Z,99.90
2019-02-20T18:55:21.122Z,99.90
2019-02-20T18:57:50.728Z,99.90
2019-02-20T19:00:21.329Z,99.90
2019-02-20T19:02:51.101Z,99.90
2019-02-20T19:05:20.753Z,99.90
2019-02-20T19:07:50.527Z,99.90
2019-02-20T19:10:37.759Z,99.90
2019-02-20T19:13:13.370Z,99.90
2019-02-20T19:15:57.402Z,99.90
2019-02-20T19:19:02.645Z,99.90
2019-02-20T19:21:37.991Z,99.90
2019-02-20T19:24:44.325Z,99.90
2019-02-20T19:27:20.136Z,99.90
2019-02-20T19:29:58.707Z,99.90
2019-02-20T19:32:47.491Z,99.90
2019-02-20T19:35:31.588Z,99.90
2019-02-20T19:38:13.219Z,99.90
2019-02-20T19:40:54.690Z,99.90
2019-02-20T19:43:45.776Z,99.90
2019-02-20T19:46:35.138Z,99.90
2019-02-20T19:49:35.113Z,99.90
2019-02-20T19:52:25.880Z,99.90
2019-02-20T19:55:21.272Z,99.90
2019-02-20T19:57:56.954Z,99.90
2019-02-20T20:00:38.281Z,99.90
2019-02-20T20:03:16.684Z,99.90
2019-02-20T20:06:07.545Z,99.90
2019-02-20T20:08:43.122Z,99.90
2019-02-20T20:11:24.830Z,99.90
2019-02-20T20:14:18.630Z,99.90
2019-02-20T20:16:54.579Z,99.90
2019-02-20T20:19:41.549Z,99.90
2019-02-20T20:22:38.651Z,99.90
2019-02-20T20:25:13.981Z,99.90
2019-02-20T20:27:49.720Z,99.90
2019-02-20T20:30:46.489Z,99.90
2019-02-20T20:33:19.283Z,99.90
2019-02-20T20:36:01.005Z,99.90
2019-02-20T20:38:50.519Z,99.90
2019-02-20T20:41:51.977Z,99.90
2019-02-20T20:44:50.701Z,99.90
2019-02-20T20:47:26.143Z,99.90
2019-02-20T20:50:07.798Z,99.90
2019-02-20T20:52:46.685Z,99.90
2019-02-20T20:55:19.536Z,99.90
2019-02-20T20:57:52.307Z,99.90
2019-02-20T21:00:57.338Z,99.90
2019-02-20T21:03:30.004Z,99.90
2019-02-20T21:06:18.038Z,99.90
2019-02-20T21:08:54.934Z,99.90
2019-02-20T21:11:27.783Z,99.90
2019-02-20T21:14:17.304Z,99.90
2019-02-20T21:16:52.649Z,99.90
2019-02-20T21:19:43.467Z,99.90
2019-02-20T21:22:31.063Z,99.90
2019-02-20T21:25:21.679Z,99.90
2019-02-20T21:28:27.863Z,99.90
2019-02-20T21:31:03.639Z,99.90
2019-02-20T21:33:45.422Z,99.90
2019-02-20T21:36:18.291Z,99.90
2019-02-20T21:38:59.790Z,99.90
2019-02-20T21:41:38.108Z,99.90
2019-02-20T21:44:22.370Z,99.90
2019-02-20T21:47:01.442Z,99.90
2019-02-20T21:49:34.392Z,99.90
2019-02-20T21:52:16.299Z,99.90
2019-02-20T21:55:00.798Z,99.90
2019-02-20T21:58:05.444Z,99.90
2019-02-20T22:00:54.444Z,99.90
2019-02-20T22:03:39.571Z,99.90
2019-02-20T22:06:15.001Z,99.90
2019-02-20T22:09:11.675Z,99.90
2019-02-20T22:12:09.998Z,99.90
2019-02-20T22:14:57.454Z,99.90
2019-02-20T22:17:57.569Z,99.90
2019-02-20T22:20:46.514Z,99.90
2019-02-20T22:23:37.542Z,99.90
2019-02-20T22:26:19.177Z,99.90
2019-02-20T22:29:11.636Z,99.90
2019-02-20T22:31:50.204Z,99.90
2019-02-20T22:34:43.985Z,99.90
2019-02-20T22:37:37.598Z,99.90
2019-02-20T22:40:22.183Z,99.90
2019-02-20T22:43:26.250Z,99.90
2019-02-20T22:46:14.966Z,99.90
2019-02-20T22:48:53.710Z,99.90
2019-02-20T22:51:31.905Z,99.90
2019-02-20T22:54:19.930Z,99.90
2019-02-20T22:56:52.727Z,99.90
2019-02-20T22:59:34.208Z,99.90
2019-02-20T23:02:18.938Z,99.90
2019-02-20T23:05:25.105Z,99.90
2019-02-20T23:08:03.658Z,99.90
2019-02-20T23:10:41.998Z,99.90
2019-02-20T23:13:17.585Z,99.90
2019-02-20T23:15:47.289Z,99.90
2019-02-20T23:18:16.951Z,99.90
2019-02-20T23:20:46.579Z,99.90
2019-02-20T23:23:16.232Z,99.90
2019-02-20T23:25:45.860Z,99.90
2019-02-20T23:28:15.526Z,99.90
2019-02-20T23:30:45.273Z,99.90
2019-02-20T23:33:14.993Z,99.90
2019-02-20T23:35:44.621Z,99.90
2019-02-20T23:38:14.276Z,99.90
2019-02-20T23:40:43.888Z,99.90
2019-02-20T23:43:13.540Z,99.90
2019-02-20T23:45:43.170Z,99.90
2019-02-20T23:48:12.839Z,99.90
2019-02-20T23:50:42.465Z,99.90
2019-02-20T23:53:12.126Z,99.90
2019-02-20T23:55:41.778Z,99.90
2019-02-20T23:58:11.409Z,99.90
